Terminal Aerodrome Forecast
Issued by NWS

Home | Current Version | Previous Version | Graphics & Text | Print | Product List | Glossary On
Versions: 1 2 3 4 5 6 7 8 9 10 11 12 13 14 15 16 17 18 19 20 21 22 23
000
FTUS43 KGRB 231120
TAFRHI
TAF
KRHI 231120Z 2312/2412 21005KT P6SM SCT250 WS007/19035KT
     FM231600 18014G24KT P6SM SCT150 BKN250
     FM232200 19008KT P6SM SCT100 BKN250
     FM240000 17008KT P6SM VCSH SCT040 BKN080 PROB30 2402/2406 3SM
      TSRA BKN040CB
     FM240700 22005KT 3SM BR VCSH SCT009 BKN015=

USA.gov is the U.S. government's official web portal to all federal, state and local government web resources and services.